RIPO2: Cimarron River Near Ripley, OK

                                SHEF ID:       RIPO2     Cimarron River near Ripley, OK
STATION TYPE:
Regulating: Stage = 20.00, Flow = 33370

PRECIP ELEVATION STAGE RIV-FLOW AIR-TEMP WIND-DIRWIND-SPEED REL-HUMID VOLTAGE BAT-LOAD
in ft ft cfs F deg mph % volt volt
Ccp-Rev Ccp-Rev Ccp-Rev Ccp-Rev Ccp-Rev Ccp-Rev Ccp-Rev Ccp-Rev Ccp-Rev Ccp-Rev
(America/Chicago)
03/29 00:00 0.00 ---- 7.24 338 129.02 ---- ---- ---- ---- 12.76
03/29 01:00 0.00 ---- 7.25 342 128.12 ---- ---- ---- ---- 12.67
03/29 02:00 0.00 ---- 7.25 342 131.00 ---- ---- ---- ---- 12.61
03/29 03:00 0.00 ---- 7.24 338 129.02 ---- ---- ---- ---- 12.57
03/29 04:00 0.00 ---- 7.25 342 126.50 ---- ---- ---- ---- 12.56
03/29 05:00 0.00 ---- 7.25 342 126.14 ---- ---- ---- ---- 12.55
03/29 06:00 0.00 ---- 7.25 342 125.24 ---- ---- ---- ---- 12.53
03/29 07:00 0.00 ---- 7.24 338 123.98 ---- ---- ---- ---- 12.49
03/29 08:00 0.00 ---- 7.24 338 126.14 ---- ---- ---- ---- 12.47
03/29 09:00 0.00 ---- 7.15 308 131.36 ---- ---- ---- ---- 12.54
03/29 10:00 0.00 ---- 7.15 308 140.18 ---- ---- ---- ---- 13.16
03/29 11:00 0.00 ---- 7.15 308 148.64 ---- ---- ---- ---- 13.64
03/29 12:00 0.00 ---- 7.15 308 156.38 ---- ---- ---- ---- 13.60
03/29 13:00 0.00 ---- 7.15 308 162.14 ---- ---- ---- ---- 13.51
03/29 14:00 0.00 ---- 7.12 298 168.08 ---- ---- ---- ---- 13.47
03/29 15:00 0.00 ---- 7.12 298 172.94 ---- ---- ---- ---- 13.44
03/29 16:00 0.00 ---- 7.13 302 176.90 ---- ---- ---- ---- 13.42
03/29 17:00 0.00 ---- 7.14 305 179.06 ---- ---- ---- ---- 13.36
03/29 18:00 0.00 ---- 7.16 311 180.68 ---- ---- ---- ---- 13.31
03/29 19:00 0.00 ---- 7.19 321 182.48 ---- ---- ---- ---- 13.29
03/29 20:00 0.00 ---- 7.18 318 174.56 ---- ---- ---- ---- 13.30
03/29 21:00 0.00 ---- 7.22 332 168.98 ---- ---- ---- ---- 13.09
03/29 22:00 0.00 ---- 7.22 332 165.74 ---- ---- ---- ---- 12.91
03/29 23:00 0.00 ---- 7.21 328 164.30 ---- ---- ---- ---- 12.77
Data processed at Mon 30Mar2026 04:02 GMT

NOTICE: If you are parsing this page

Please convert to using our Data API. Starting early 2026 we will be migrating to: https://water.usace.army.mil with modern pages rendered in JavaScript. When this migration completes you will no longer be able to scrape this page! CWMSDataAPI (CDA)

Timeseries IDs (TSIDs)

TSIDs used from left to right in the data table
RIPL.Precip-Inc.Total.1Hour.1Hour.Ccp-Rev
RIPL.Stage.Inst.1Hour.0.Ccp-Rev
RIPL.Flow.Inst.1Hour.0.Ccp-Rev
RIPL.Temp-Air.Inst.1Hour.0.Ccp-Rev
RIPL.Dir-Wind.Inst.1Hour.0.Ccp-Rev
RIPL.Speed-Wind.Inst.1Hour.0.Ccp-Rev
RIPL.%-Humidity.Inst.1Hour.0.Ccp-Rev
RIPL.Volt-Battery.Inst.1Hour.0.Ccp-Rev
RIPL.Volt-Battery Load.Inst.1Hour.0.Ccp-Rev

                            

All information presented herein is the property of the government of the United States of America and may be revised or deleted at any time without prior notice. Dissemination of this information without the expressed written consent of the Public Affairs Office, Tulsa District U.S. Army Corps of Engineers is strictly prohibited. These data are gathered electronically and, as presented, have NOT undergone any form of quality control. These data are NOT guaranteed to be valid or correct.